x

West Santa Barbara 38 Nm West Of Santa Barbara, Ca (46054) Wave Buoy

5:50am - Wed 27th Jul 2016 All times are PDT. -7 hours from GMT.

  • Sig Wave height 4.9ft
  • Swell Direction
  • Peak Period 10s
  • Average Period 7s
  • Wind
    16mph, 18mph gusts
  • Sea Temp 61°f
  • 空気 Temp 60°f
  • Sea Pressure 1011.5mb
  • West Santa Barbara  38 Nm West Of Santa Barbara, Ca
  • West Santa Barbara  38 Nm West Of Santa Barbara, Ca

More Historic Weather Station data

Upgrade to MSW Pro to gain access to the past 30 days of data for over 8000 Wavebouys and Weather Stations around the globe.

Join Pro

Comparision Forecast

View Surf forecast
   
Wed 07/27 5:50am 5ft 10s 7s 16 18 mph 1011.5mb 61f 60f
4:50am 4.5ft 11s 6s 13 18 mph 1011.3mb 62f 58f
3:50am 5ft 9s 7s 11 13 mph 1011.5mb 62f 59f
2:50am 5ft 9s 6s 16 18 mph 1011.3mb 62f 58f
1:50am 5ft 10s 6s 16 18 mph 1011.3mb 61f 58f
12:50am 5ft 10s 6s 18 22 mph 1011.3mb 61f 58f
Tue 07/26 11:50pm 5ft 9s 5s 20 25 mph 1011.3mb 62f 58f
10:50pm 6ft 10s 6s 18 22 mph 1011.7mb 61f 58f
9:50pm 5ft 10s 6s 20 25 mph 1011.3mb 61f 57f
8:50pm 4ft 8s 6s 20 22 mph 1011.1mb 61f 57f
7:50pm 4.5ft 9s 6s 16 20 mph 1011mb 60f 58f
6:50pm 4.5ft 10s 6s 16 20 mph 1011.1mb 59f 58f
5:50pm 4ft 9s 6s 16 18 mph 1011.6mb 61f 57f
4:50pm 4.5ft 10s 7s 13 16 mph 1011.8mb 60f 57f
3:50pm 4.5ft 9s 7s 11 13 mph 1012.4mb 60f 57f
5:50am 4ft 14s 6s 11 13 mph 1012.1mb 61f 58f
4:50am 4ft 10s 6s 11 13 mph 1012mb 61f 58f
3:50am 4ft 9s 6s 13 16 mph 1012.1mb 61f 58f
2:50am 5ft 8s 6s 13 16 mph 1012mb 61f 57f
1:50am 5ft 10s 6s 16 18 mph 1011.9mb 61f 57f
12:50am 5ft 10s 6s 16 20 mph 1011.9mb 61f 57f
Mon 07/25 11:50pm 5.5ft 8s 6s 18 22 mph 1012.3mb 61f 56f
10:50pm 6ft 10s 6s 18 20 mph 1012.3mb 60f 56f
9:50pm 6ft 10s 6s 20 25 mph 1012mb 60f 56f
8:50pm 5.5ft 10s 6s 22 25 mph 1011.5mb 60f 56f
7:50pm 5.5ft 9s 6s 20 25 mph 1011.6mb 60f 56f
6:50pm 6ft 10s 6s 22 25 mph 1011.5mb 57f 56f
5:50pm 5ft 9s 6s 20 22 mph 1011.9mb 58f 56f
4:50pm 5.5ft 9s 6s 18 22 mph 1012.6mb 58f 57f
3:50pm 5ft 10s 6s 16 20 mph 1013.5mb 58f 57f
2:50pm 6ft 10s 7s 13 16 mph 1014.2mb 59f 58f
1:50pm 5ft 10s 7s 11 13 mph 1014.7mb 60f 58f
12:50pm 5.5ft 8s 7s 11 13 mph 1014.9mb 60f 58f
11:50am 5ft 9s 7s 9 11 mph 1015.2mb 60f 58f
10:50am 5ft 10s 7s 7 9 mph 1015.6mb 60f 59f
9:50am 5.5ft 10s 7s 9 11 mph 1015.1mb 60f 58f
8:50am 5.5ft 10s 7s 9 11 mph 1014.9mb 60f 57f
7:50am 5ft 10s 7s 9 11 mph 1014.4mb 60f 57f
6:50am 5ft 10s 7s 7
mph
1014mb 60f 59f
5:50am 5ft 10s 7s 2 4 mph 1013.6mb 60f 59f
4:50am 5ft 10s 7s 9 11 mph 1013mb 58f 57f
3:50am 6ft 10s 7s 11 16 mph 1012.8mb 58f 56f
2:50am 5.5ft 10s 7s 11 13 mph 1012.6mb 58f 57f
1:50am 5.5ft 10s 7s 13 16 mph 1012.4mb 58f 56f
12:50am 6ft 10s 7s 13 16 mph 1012.4mb 58f 56f
Sun 07/24 11:50pm 6ft 10s 7s 16 18 mph 1012.6mb 59f 56f
10:50pm 6ft 9s 6s 18 22 mph 1012.3mb 59f 56f
9:50pm 6.5ft 9s 6s 18 20 mph 1012.1mb 57f 56f
8:50pm 6ft 9s 6s 18 20 mph 1011.8mb 57f 56f
7:50pm 6ft 10s 6s 18 22 mph 1012.1mb 57f 56f
6:50pm 6ft 10s 7s 16 20 mph 1012.2mb 57f 56f
5:50pm 6ft 10s 7s 16 20 mph 1012.4mb 58f 56f
4:50pm 5.5ft 10s 7s 16 20 mph 1012.5mb 58f 57f
3:50pm 5.5ft 10s 7s 16 18 mph 1012.9mb 58f 56f
2:50pm 6ft 9s 7s 13 16 mph 1013.5mb 58f 56f
1:50pm 6ft 9s 7s 9 11 mph 1013.7mb 57f 56f
12:50pm 6ft 9s 7s 9 11 mph 1013.7mb 56f 56f
11:50am 7ft 10s 7s 11 13 mph 1013.3mb 56f 55f
10:50am 7ft 9s 7s 11 16 mph 1012.8mb 56f 56f
9:50am 7.5ft 10s 7s 13 16 mph 1012.2mb 55f 56f
8:50am 7.5ft 9s 7s 13 16 mph 1011.7mb 55f 56f
7:50am 7ft 8s 7s 11 13 mph 1011.4mb 55f 56f
6:50am 7ft 10s 7s 11 16 mph 1010.8mb 55f 56f
5:50am 7ft 10s 7s 11 13 mph 1010.1mb 55f 56f
4:50am 7ft 10s 7s 13 16 mph 1009.6mb 55f 56f
3:50am 6.5ft 10s 7s 13 18 mph 1009.3mb 55f 56f
2:50am 6ft 10s 7s 13 16 mph 1009.3mb 55f 56f
1:50am 6ft 10s 7s 9 11 mph 1009.4mb 55f 56f
12:50am 6ft 9s 7s 9 13 mph 1009.7mb 55f 56f
Sat 07/23 11:50pm 7ft 9s 7s 11 13 mph 1009.8mb 54f 57f
10:50pm 7.5ft 9s 6s 13 16 mph 1009.6mb 54f 57f
9:50pm 8ft 9s 6s 20 22 mph 1009.3mb 54f 57f
8:50pm 8ft 9s 6s 22 27 mph 1008.4mb 54f 57f
7:50pm 8ft 8s 6s 25 29 mph 1008.2mb 54f 58f
6:50pm 8.5ft 9s 6s 22 29 mph 1008mb 54f 57f
5:50pm 8.5ft 8s 6s 25 31 mph 1007.8mb 54f 57f
4:50pm 9ft 9s 6s 29 34 mph 1007.8mb 54f 57f
3:50pm 8ft 9s 6s 27 34 mph 1008.2mb 54f 57f
2:50pm 8.5ft 8s 6s 29 36 mph 1008.2mb 54f 57f
1:50pm 8.5ft 8s 6s 29 36 mph 1008.9mb 54f 57f